sensor_id;sensor_type;location;lat;lon;timestamp;pressure;altitude;pressure_sealevel;temperature;humidity
20115;BME280;10218;42.874;25.320;2022-11-15T00:01:42;97904.00;;;8.91;100.00
20115;BME280;10218;42.874;25.320;2022-11-15T00:04:27;97898.94;;;8.98;100.00
20115;BME280;10218;42.874;25.320;2022-11-15T00:07:13;97896.50;;;9.05;100.00
20115;BME280;10218;42.874;25.320;2022-11-15T00:10:06;97893.56;;;9.08;100.00
20115;BME280;10218;42.874;25.320;2022-11-15T00:12:52;97891.69;;;9.27;100.00
20115;BME280;10218;42.874;25.320;2022-11-15T00:15:38;97899.78;;;8.98;100.00
20115;BME280;10218;42.874;25.320;2022-11-15T00:18:24;97909.66;;;8.59;100.00
20115;BME280;10218;42.874;25.320;2022-11-15T00:21:11;97907.56;;;8.63;100.00
20115;BME280;10218;42.874;25.320;2022-11-15T00:23:58;97908.69;;;8.51;100.00
20115;BME280;10218;42.874;25.320;2022-11-15T00:26:43;97908.25;;;8.65;100.00
20115;BME280;10218;42.874;25.320;2022-11-15T00:29:29;97897.97;;;8.80;100.00
20115;BME280;10218;42.874;25.320;2022-11-15T00:32:14;97902.47;;;8.70;100.00
20115;BME280;10218;42.874;25.320;2022-11-15T00:35:00;97896.44;;;8.87;100.00
20115;BME280;10218;42.874;25.320;2022-11-15T00:37:45;97894.94;;;8.55;100.00
20115;BME280;10218;42.874;25.320;2022-11-15T00:40:32;97888.91;;;8.53;100.00
20115;BME280;10218;42.874;25.320;2022-11-15T00:43:18;97883.25;;;8.85;100.00
20115;BME280;10218;42.874;25.320;2022-11-15T00:46:03;97880.72;;;8.93;100.00
20115;BME280;10218;42.874;25.320;2022-11-15T00:48:49;97873.69;;;8.92;100.00
20115;BME280;10218;42.874;25.320;2022-11-15T00:51:34;97871.91;;;8.83;100.00
20115;BME280;10218;42.874;25.320;2022-11-15T00:54:20;97874.75;;;8.63;100.00
20115;BME280;10218;42.874;25.320;2022-11-15T00:57:05;97864.53;;;8.58;100.00
20115;BME280;10218;42.874;25.320;2022-11-15T00:59:51;97869.16;;;8.46;100.00
20115;BME280;10218;42.874;25.320;2022-11-15T01:02:36;97867.16;;;8.29;100.00
20115;BME280;10218;42.874;25.320;2022-11-15T01:05:22;97874.06;;;8.41;100.00
20115;BME280;10218;42.874;25.320;2022-11-15T01:08:12;97857.66;;;8.46;100.00
20115;BME280;10218;42.874;25.320;2022-11-15T01:11:05;97870.56;;;8.31;100.00
20115;BME280;10218;42.874;25.320;2022-11-15T01:13:51;97872.66;;;8.47;100.00
20115;BME280;10218;42.874;25.320;2022-11-15T01:16:36;97866.34;;;8.67;100.00
20115;BME280;10218;42.874;25.320;2022-11-15T01:19:22;97856.78;;;8.65;100.00
20115;BME280;10218;42.874;25.320;2022-11-15T01:22:07;97856.53;;;8.39;100.00
20115;BME280;10218;42.874;25.320;2022-11-15T01:24:52;97865.47;;;8.28;100.00
20115;BME280;10218;42.874;25.320;2022-11-15T01:27:38;97854.53;;;8.70;100.00
20115;BME280;10218;42.874;25.320;2022-11-15T01:30:24;97851.69;;;8.90;100.00
20115;BME280;10218;42.874;25.320;2022-11-15T01:33:09;97846.13;;;8.65;100.00
20115;BME280;10218;42.874;25.320;2022-11-15T01:35:55;97836.53;;;8.91;100.00
20115;BME280;10218;42.874;25.320;2022-11-15T01:38:41;97849.44;;;8.86;100.00
20115;BME280;10218;42.874;25.320;2022-11-15T01:41:31;97853.47;;;8.53;100.00
20115;BME280;10218;42.874;25.320;2022-11-15T01:44:44;97851.47;;;8.65;100.00
20115;BME280;10218;42.874;25.320;2022-11-15T01:47:37;97862.69;;;8.68;100.00
20115;BME280;10218;42.874;25.320;2022-11-15T01:50:29;97846.97;;;8.65;100.00
20115;BME280;10218;42.874;25.320;2022-11-15T01:53:17;97847.97;;;8.26;100.00
20115;BME280;10218;42.874;25.320;2022-11-15T01:56:06;97840.28;;;8.51;100.00
20115;BME280;10218;42.874;25.320;2022-11-15T01:58:55;97859.94;;;8.31;100.00
20115;BME280;10218;42.874;25.320;2022-11-15T02:01:42;97850.38;;;8.48;100.00
20115;BME280;10218;42.874;25.320;2022-11-15T02:04:31;97849.94;;;8.62;100.00
20115;BME280;10218;42.874;25.320;2022-11-15T02:07:18;97840.62;;;8.85;100.00
20115;BME280;10218;42.874;25.320;2022-11-15T02:10:11;97842.59;;;8.83;100.00
20115;BME280;10218;42.874;25.320;2022-11-15T02:12:59;97838.56;;;8.60;100.00
20115;BME280;10218;42.874;25.320;2022-11-15T02:31:53;97848.31;;;8.32;100.00
20115;BME280;10218;42.874;25.320;2022-11-15T02:37:58;97834.25;;;8.21;100.00
20115;BME280;10218;42.874;25.320;2022-11-15T02:43:54;97842.50;;;8.08;100.00
20115;BME280;10218;42.874;25.320;2022-11-15T02:46:56;97839.69;;;8.29;100.00
20115;BME280;10218;42.874;25.320;2022-11-15T02:50:01;97830.63;;;8.22;100.00
20115;BME280;10218;42.874;25.320;2022-11-15T02:52:48;97823.47;;;7.93;100.00
20115;BME280;10218;42.874;25.320;2022-11-15T02:55:46;97825.88;;;7.87;100.00
20115;BME280;10218;42.874;25.320;2022-11-15T03:01:58;97823.75;;;8.09;100.00
20115;BME280;10218;42.874;25.320;2022-11-15T03:11:08;97820.94;;;8.40;100.00
20115;BME280;10218;42.874;25.320;2022-11-15T03:17:00;97810.84;;;8.14;100.00
20115;BME280;10218;42.874;25.320;2022-11-15T03:19:51;97814.22;;;8.16;100.00
20115;BME280;10218;42.874;25.320;2022-11-15T03:22:41;97809.03;;;8.25;100.00
20115;BME280;10218;42.874;25.320;2022-11-15T03:25:28;97818.16;;;8.22;100.00
20115;BME280;10218;42.874;25.320;2022-11-15T03:28:20;97808.34;;;8.42;100.00
20115;BME280;10218;42.874;25.320;2022-11-15T03:31:08;97794.56;;;8.56;100.00
20115;BME280;10218;42.874;25.320;2022-11-15T03:34:41;97818.28;;;8.21;100.00
20115;BME280;10218;42.874;25.320;2022-11-15T03:37:45;97811.13;;;8.50;100.00
20115;BME280;10218;42.874;25.320;2022-11-15T03:40:51;97799.53;;;8.22;100.00
20115;BME280;10218;42.874;25.320;2022-11-15T03:44:12;97806.66;;;8.22;100.00
20115;BME280;10218;42.874;25.320;2022-11-15T03:50:22;97804.00;;;7.83;100.00
20115;BME280;10218;42.874;25.320;2022-11-15T03:53:06;97797.87;;;7.92;100.00
20115;BME280;10218;42.874;25.320;2022-11-15T03:55:52;97794.91;;;7.95;100.00
20115;BME280;10218;42.874;25.320;2022-11-15T03:58:37;97795.75;;;8.05;100.00
20115;BME280;10218;42.874;25.320;2022-11-15T04:01:22;97779.06;;;8.23;100.00
20115;BME280;10218;42.874;25.320;2022-11-15T04:04:08;97790.44;;;8.05;100.00
20115;BME280;10218;42.874;25.320;2022-11-15T04:06:53;97789.13;;;8.29;100.00
20115;BME280;10218;42.874;25.320;2022-11-15T04:09:38;97797.13;;;8.09;100.00
20115;BME280;10218;42.874;25.320;2022-11-15T04:12:45;97784.69;;;8.00;100.00
20115;BME280;10218;42.874;25.320;2022-11-15T04:15:34;97798.13;;;7.99;100.00
20115;BME280;10218;42.874;25.320;2022-11-15T04:18:19;97795.19;;;8.31;100.00
20115;BME280;10218;42.874;25.320;2022-11-15T04:21:05;97783.66;;;8.49;100.00
20115;BME280;10218;42.874;25.320;2022-11-15T04:24:25;97775.44;;;8.04;100.00
20115;BME280;10218;42.874;25.320;2022-11-15T04:27:10;97783.84;;;8.00;100.00
20115;BME280;10218;42.874;25.320;2022-11-15T04:29:58;97787.06;;;7.74;100.00
20115;BME280;10218;42.874;25.320;2022-11-15T04:32:44;97789.31;;;7.79;100.00
20115;BME280;10218;42.874;25.320;2022-11-15T04:35:29;97787.62;;;7.78;100.00
20115;BME280;10218;42.874;25.320;2022-11-15T04:38:15;97776.97;;;7.59;100.00
20115;BME280;10218;42.874;25.320;2022-11-15T04:41:01;97781.03;;;7.63;100.00
20115;BME280;10218;42.874;25.320;2022-11-15T04:43:46;97780.59;;;7.58;100.00
20115;BME280;10218;42.874;25.320;2022-11-15T04:46:32;97785.22;;;7.56;100.00
20115;BME280;10218;42.874;25.320;2022-11-15T04:49:18;97778.06;;;7.47;100.00
20115;BME280;10218;42.874;25.320;2022-11-15T04:52:03;97779.50;;;7.89;100.00
20115;BME280;10218;42.874;25.320;2022-11-15T04:54:48;97776.28;;;7.66;100.00
20115;BME280;10218;42.874;25.320;2022-11-15T04:57:34;97774.47;;;7.96;100.00
20115;BME280;10218;42.874;25.320;2022-11-15T05:00:19;97771.22;;;8.11;100.00
20115;BME280;10218;42.874;25.320;2022-11-15T05:03:05;97763.81;;;7.67;100.00
20115;BME280;10218;42.874;25.320;2022-11-15T05:06:09;97772.47;;;7.40;100.00
20115;BME280;10218;42.874;25.320;2022-11-15T05:08:55;97776.66;;;7.43;100.00
20115;BME280;10218;42.874;25.320;2022-11-15T05:11:41;97770.25;;;7.64;100.00
20115;BME280;10218;42.874;25.320;2022-11-15T05:14:27;97761.16;;;7.96;100.00
20115;BME280;10218;42.874;25.320;2022-11-15T05:17:12;97761.16;;;8.05;100.00
20115;BME280;10218;42.874;25.320;2022-11-15T05:19:58;97771.09;;;8.03;100.00
20115;BME280;10218;42.874;25.320;2022-11-15T05:22:43;97779.91;;;7.94;100.00
20115;BME280;10218;42.874;25.320;2022-11-15T05:25:29;97776.66;;;8.20;100.00
20115;BME280;10218;42.874;25.320;2022-11-15T05:28:14;97774.84;;;8.20;100.00
20115;BME280;10218;42.874;25.320;2022-11-15T05:31:08;97771.38;;;8.10;100.00
20115;BME280;10218;42.874;25.320;2022-11-15T05:33:54;97766.78;;;8.02;100.00
20115;BME280;10218;42.874;25.320;2022-11-15T05:36:44;97771.09;;;8.03;100.00
20115;BME280;10218;42.874;25.320;2022-11-15T05:39:30;97767.03;;;7.61;100.00
20115;BME280;10218;42.874;25.320;2022-11-15T05:42:16;97760.47;;;7.46;100.00
20115;BME280;10218;42.874;25.320;2022-11-15T05:45:03;97776.28;;;7.76;100.00
20115;BME280;10218;42.874;25.320;2022-11-15T05:47:51;97775.81;;;8.29;100.00
20115;BME280;10218;42.874;25.320;2022-11-15T05:50:41;97774.44;;;8.34;100.00
20115;BME280;10218;42.874;25.320;2022-11-15T05:53:29;97767.44;;;8.43;100.00
20115;BME280;10218;42.874;25.320;2022-11-15T05:56:15;97760.44;;;8.03;100.00
20115;BME280;10218;42.874;25.320;2022-11-15T05:59:02;97775.56;;;7.64;100.00
20115;BME280;10218;42.874;25.320;2022-11-15T06:01:48;97787.91;;;7.75;100.00
20115;BME280;10218;42.874;25.320;2022-11-15T06:04:33;97788.19;;;7.91;100.00
20115;BME280;10218;42.874;25.320;2022-11-15T06:07:18;97781.06;;;7.82;100.00
20115;BME280;10218;42.874;25.320;2022-11-15T06:10:04;97790.44;;;7.86;100.00
20115;BME280;10218;42.874;25.320;2022-11-15T06:13:00;97784.69;;;7.71;100.00
20115;BME280;10218;42.874;25.320;2022-11-15T06:15:46;97792.66;;;7.71;100.00
20115;BME280;10218;42.874;25.320;2022-11-15T06:18:32;97787.62;;;8.36;100.00
20115;BME280;10218;42.874;25.320;2022-11-15T06:21:19;97789.41;;;8.26;100.00
20115;BME280;10218;42.874;25.320;2022-11-15T06:24:05;97786.91;;;8.24;100.00
20115;BME280;10218;42.874;25.320;2022-11-15T06:26:51;97778.88;;;8.63;100.00
20115;BME280;10218;42.874;25.320;2022-11-15T06:29:36;97766.22;;;8.65;100.00
20115;BME280;10218;42.874;25.320;2022-11-15T06:32:22;97776.63;;;8.58;100.00
20115;BME280;10218;42.874;25.320;2022-11-15T06:35:07;97778.09;;;8.43;100.00
20115;BME280;10218;42.874;25.320;2022-11-15T06:37:53;97770.59;;;8.56;100.00
20115;BME280;10218;42.874;25.320;2022-11-15T06:40:38;97785.38;;;8.12;100.00
20115;BME280;10218;42.874;25.320;2022-11-15T06:43:24;97784.25;;;8.14;100.00
20115;BME280;10218;42.874;25.320;2022-11-15T06:46:10;97781.16;;;8.19;100.00
20115;BME280;10218;42.874;25.320;2022-11-15T06:48:55;97775.13;;;8.27;100.00
20115;BME280;10218;42.874;25.320;2022-11-15T06:51:41;97783.06;;;8.55;100.00
20115;BME280;10218;42.874;25.320;2022-11-15T06:54:26;97775.84;;;8.48;100.00
20115;BME280;10218;42.874;25.320;2022-11-15T06:57:12;97773.06;;;8.11;100.00
20115;BME280;10218;42.874;25.320;2022-11-15T06:59:57;97766.06;;;8.00;100.00
20115;BME280;10218;42.874;25.320;2022-11-15T07:02:43;97771.25;;;7.92;100.00
20115;BME280;10218;42.874;25.320;2022-11-15T07:05:29;97757.63;;;8.14;100.00
20115;BME280;10218;42.874;25.320;2022-11-15T07:08:14;97765.06;;;8.21;100.00
20115;BME280;10218;42.874;25.320;2022-11-15T07:11:01;97762.09;;;8.24;100.00
20115;BME280;10218;42.874;25.320;2022-11-15T07:13:47;97764.47;;;8.46;100.00
20115;BME280;10218;42.874;25.320;2022-11-15T07:16:32;97761.94;;;8.44;100.00
20115;BME280;10218;42.874;25.320;2022-11-15T07:19:18;97753.41;;;8.41;100.00
20115;BME280;10218;42.874;25.320;2022-11-15T07:22:03;97755.38;;;8.39;100.00
20115;BME280;10218;42.874;25.320;2022-11-15T07:24:49;97753.81;;;8.46;100.00
20115;BME280;10218;42.874;25.320;2022-11-15T07:27:34;97754.81;;;8.26;100.00
20115;BME280;10218;42.874;25.320;2022-11-15T07:30:19;97748.66;;;8.15;100.00
20115;BME280;10218;42.874;25.320;2022-11-15T07:33:05;97738.31;;;8.32;100.00
20115;BME280;10218;42.874;25.320;2022-11-15T07:35:51;97737.91;;;8.64;100.00
20115;BME280;10218;42.874;25.320;2022-11-15T07:38:36;97753.44;;;8.22;100.00
20115;BME280;10218;42.874;25.320;2022-11-15T07:41:25;97746.22;;;8.51;100.00
20115;BME280;10218;42.874;25.320;2022-11-15T07:44:10;97740.97;;;8.32;100.00
20115;BME280;10218;42.874;25.320;2022-11-15T07:46:56;97745.50;;;8.58;100.00
20115;BME280;10218;42.874;25.320;2022-11-15T07:49:43;97740.25;;;8.30;100.00
20115;BME280;10218;42.874;25.320;2022-11-15T07:52:29;97738.47;;;8.67;100.00
20115;BME280;10218;42.874;25.320;2022-11-15T07:55:14;97730.97;;;8.53;100.00
20115;BME280;10218;42.874;25.320;2022-11-15T07:58:04;97722.28;;;8.51;100.00
20115;BME280;10218;42.874;25.320;2022-11-15T08:00:50;97727.00;;;8.57;100.00
20115;BME280;10218;42.874;25.320;2022-11-15T08:03:35;97723.28;;;8.77;100.00
20115;BME280;10218;42.874;25.320;2022-11-15T08:06:21;97695.44;;;8.89;100.00
20115;BME280;10218;42.874;25.320;2022-11-15T08:09:06;97728.78;;;9.21;100.00
20115;BME280;10218;42.874;25.320;2022-11-15T08:11:52;97725.25;;;8.75;100.00
20115;BME280;10218;42.874;25.320;2022-11-15T08:14:37;97722.87;;;8.99;100.00
20115;BME280;10218;42.874;25.320;2022-11-15T08:17:24;97719.59;;;8.88;100.00
20115;BME280;10218;42.874;25.320;2022-11-15T08:20:10;97726.34;;;8.82;100.00
20115;BME280;10218;42.874;25.320;2022-11-15T08:22:57;97719.72;;;8.86;100.00
20115;BME280;10218;42.874;25.320;2022-11-15T08:25:43;97720.84;;;8.84;100.00
20115;BME280;10218;42.874;25.320;2022-11-15T08:28:29;97716.97;;;9.06;100.00
20115;BME280;10218;42.874;25.320;2022-11-15T08:31:16;97711.16;;;8.92;100.00
20115;BME280;10218;42.874;25.320;2022-11-15T08:34:03;97708.31;;;9.21;100.00
20115;BME280;10218;42.874;25.320;2022-11-15T08:36:49;97706.78;;;9.19;100.00
20115;BME280;10218;42.874;25.320;2022-11-15T08:39:34;97707.00;;;9.25;100.00
20115;BME280;10218;42.874;25.320;2022-11-15T08:42:20;97687.41;;;8.72;100.00
20115;BME280;10218;42.874;25.320;2022-11-15T08:45:06;97694.97;;;8.76;100.00
20115;BME280;10218;42.874;25.320;2022-11-15T08:47:52;97698.69;;;9.11;100.00
20115;BME280;10218;42.874;25.320;2022-11-15T08:50:38;97688.53;;;8.69;100.00
20115;BME280;10218;42.874;25.320;2022-11-15T08:53:24;97684.94;;;9.33;100.00
20115;BME280;10218;42.874;25.320;2022-11-15T08:56:11;97677.31;;;9.56;100.00
20115;BME280;10218;42.874;25.320;2022-11-15T08:58:57;97667.94;;;9.69;100.00
20115;BME280;10218;42.874;25.320;2022-11-15T09:01:43;97676.16;;;9.40;100.00
20115;BME280;10218;42.874;25.320;2022-11-15T09:04:29;97663.66;;;9.76;100.00
20115;BME280;10218;42.874;25.320;2022-11-15T09:07:14;97659.84;;;9.61;100.00
20115;BME280;10218;42.874;25.320;2022-11-15T09:10:00;97665.12;;;9.35;100.00
20115;BME280;10218;42.874;25.320;2022-11-15T09:12:45;97659.47;;;9.56;100.00
20115;BME280;10218;42.874;25.320;2022-11-15T09:15:33;97643.09;;;9.69;100.00
20115;BME280;10218;42.874;25.320;2022-11-15T09:18:19;97641.66;;;10.00;100.00
20115;BME280;10218;42.874;25.320;2022-11-15T09:21:08;97639.63;;;10.20;100.00
20115;BME280;10218;42.874;25.320;2022-11-15T09:23:53;97639.84;;;9.22;100.00
20115;BME280;10218;42.874;25.320;2022-11-15T09:26:40;97627.41;;;9.30;100.00
20115;BME280;10218;42.874;25.320;2022-11-15T09:29:26;97627.09;;;9.51;100.00
20115;BME280;10218;42.874;25.320;2022-11-15T09:32:29;97624.06;;;10.15;100.00
20115;BME280;10218;42.874;25.320;2022-11-15T09:35:19;97617.66;;;10.08;100.00
20115;BME280;10218;42.874;25.320;2022-11-15T09:38:04;97607.75;;;10.01;100.00
20115;BME280;10218;42.874;25.320;2022-11-15T09:40:59;97607.97;;;9.81;100.00
20115;BME280;10218;42.874;25.320;2022-11-15T09:50:00;97596.56;;;9.97;100.00
20115;BME280;10218;42.874;25.320;2022-11-15T09:52:36;97594.69;;;10.41;100.00
20115;BME280;10218;42.874;25.320;2022-11-15T09:55:09;97599.44;;;10.63;100.00
20115;BME280;10218;42.874;25.320;2022-11-15T09:58:07;97593.50;;;10.86;100.00
20115;BME280;10218;42.874;25.320;2022-11-15T10:00:47;97589.94;;;10.77;100.00
20115;BME280;10218;42.874;25.320;2022-11-15T10:03:34;97583.94;;;10.25;100.00
20115;BME280;10218;42.874;25.320;2022-11-15T10:06:04;97574.34;;;9.88;100.00
20115;BME280;10218;42.874;25.320;2022-11-15T10:11:24;97577.81;;;10.41;100.00
20115;BME280;10218;42.874;25.320;2022-11-15T10:14:14;97567.91;;;10.25;100.00
20115;BME280;10218;42.874;25.320;2022-11-15T10:20:02;97570.66;;;10.15;100.00
20115;BME280;10218;42.874;25.320;2022-11-15T10:25:37;97557.53;;;9.96;100.00
20115;BME280;10218;42.874;25.320;2022-11-15T10:28:27;97540.56;;;11.05;100.00
20115;BME280;10218;42.874;25.320;2022-11-15T10:30:59;97538.25;;;10.44;100.00
20115;BME280;10218;42.874;25.320;2022-11-15T10:33:33;97539.25;;;10.43;100.00
20115;BME280;10218;42.874;25.320;2022-11-15T10:36:21;97527.12;;;10.65;100.00
20115;BME280;10218;42.874;25.320;2022-11-15T10:41:38;97515.97;;;11.34;100.00
20115;BME280;10218;42.874;25.320;2022-11-15T10:44:44;97516.34;;;11.07;100.00
20115;BME280;10218;42.874;25.320;2022-11-15T10:47:22;97510.31;;;11.13;100.00
20115;BME280;10218;42.874;25.320;2022-11-15T10:50:26;97504.84;;;11.94;100.00
20115;BME280;10218;42.874;25.320;2022-11-15T10:52:46;97505.75;;;11.78;100.00
20115;BME280;10218;42.874;25.320;2022-11-15T10:57:51;97508.63;;;11.36;100.00
20115;BME280;10218;42.874;25.320;2022-11-15T11:05:34;97511.69;;;10.43;100.00
20115;BME280;10218;42.874;25.320;2022-11-15T11:10:38;97502.06;;;10.50;100.00
20115;BME280;10218;42.874;25.320;2022-11-15T11:13:37;97502.56;;;11.67;100.00
20115;BME280;10218;42.874;25.320;2022-11-15T11:27:43;97492.59;;;10.80;100.00
20115;BME280;10218;42.874;25.320;2022-11-15T11:30:29;97490.91;;;10.79;100.00
20115;BME280;10218;42.874;25.320;2022-11-15T11:33:14;97487.47;;;10.28;100.00
20115;BME280;10218;42.874;25.320;2022-11-15T11:36:26;97484.91;;;10.93;100.00
20115;BME280;10218;42.874;25.320;2022-11-15T11:41:46;97477.56;;;11.03;100.00
20115;BME280;10218;42.874;25.320;2022-11-15T11:47:03;97468.00;;;11.33;100.00
20115;BME280;10218;42.874;25.320;2022-11-15T11:49:55;97464.53;;;11.00;100.00
20115;BME280;10218;42.874;25.320;2022-11-15T11:52:43;97469.81;;;10.43;100.00
20115;BME280;10218;42.874;25.320;2022-11-15T11:55:24;97474.03;;;10.70;100.00
20115;BME280;10218;42.874;25.320;2022-11-15T11:58:04;97473.97;;;10.29;100.00
20115;BME280;10218;42.874;25.320;2022-11-15T12:00:37;97460.16;;;10.58;100.00
20115;BME280;10218;42.874;25.320;2022-11-15T12:03:12;97451.28;;;11.23;100.00
20115;BME280;10218;42.874;25.320;2022-11-15T12:13:38;97444.56;;;11.43;100.00
20115;BME280;10218;42.874;25.320;2022-11-15T12:16:18;97440.13;;;10.79;100.00
20115;BME280;10218;42.874;25.320;2022-11-15T12:18:50;97433.78;;;10.71;100.00
20115;BME280;10218;42.874;25.320;2022-11-15T12:24:23;97426.41;;;11.22;100.00
20115;BME280;10218;42.874;25.320;2022-11-15T12:29:35;97410.94;;;11.56;100.00
20115;BME280;10218;42.874;25.320;2022-11-15T12:32:05;97410.84;;;11.89;100.00
20115;BME280;10218;42.874;25.320;2022-11-15T12:34:40;97404.69;;;11.88;100.00
20115;BME280;10218;42.874;25.320;2022-11-15T12:43:00;97398.84;;;11.13;100.00
20115;BME280;10218;42.874;25.320;2022-11-15T12:45:35;97382.75;;;11.30;100.00
20115;BME280;10218;42.874;25.320;2022-11-15T12:58:59;97380.31;;;11.12;100.00
20115;BME280;10218;42.874;25.320;2022-11-15T13:06:51;97369.31;;;11.54;100.00
20115;BME280;10218;42.874;25.320;2022-11-15T13:11:56;97371.31;;;10.32;100.00
20115;BME280;10218;42.874;25.320;2022-11-15T13:14:44;97365.47;;;10.53;100.00
20115;BME280;10218;42.874;25.320;2022-11-15T13:20:00;97362.88;;;11.24;100.00
20115;BME280;10218;42.874;25.320;2022-11-15T13:22:38;97364.94;;;11.06;100.00
20115;BME280;10218;42.874;25.320;2022-11-15T13:30:55;97351.78;;;11.43;100.00
20115;BME280;10218;42.874;25.320;2022-11-15T13:33:33;97353.44;;;11.44;100.00
20115;BME280;10218;42.874;25.320;2022-11-15T13:36:08;97347.81;;;11.31;100.00
20115;BME280;10218;42.874;25.320;2022-11-15T13:38:38;97347.13;;;10.66;100.00
20115;BME280;10218;42.874;25.320;2022-11-15T13:41:21;97345.28;;;10.75;100.00
20115;BME280;10218;42.874;25.320;2022-11-15T13:43:50;97332.81;;;11.22;100.00
20115;BME280;10218;42.874;25.320;2022-11-15T13:46:21;97337.69;;;11.02;100.00
20115;BME280;10218;42.874;25.320;2022-11-15T13:48:55;97329.41;;;10.81;100.00
20115;BME280;10218;42.874;25.320;2022-11-15T13:56:36;97333.06;;;10.32;100.00
20115;BME280;10218;42.874;25.320;2022-11-15T13:59:15;97328.88;;;10.78;100.00
20115;BME280;10218;42.874;25.320;2022-11-15T14:01:44;97328.41;;;10.74;100.00
20115;BME280;10218;42.874;25.320;2022-11-15T14:04:13;97329.94;;;10.36;100.00
20115;BME280;10218;42.874;25.320;2022-11-15T14:06:48;97329.25;;;10.50;100.00
20115;BME280;10218;42.874;25.320;2022-11-15T14:11:54;97320.72;;;10.14;100.00
20115;BME280;10218;42.874;25.320;2022-11-15T14:14:23;97330.22;;;10.17;100.00
20115;BME280;10218;42.874;25.320;2022-11-15T14:16:53;97330.53;;;10.14;100.00
20115;BME280;10218;42.874;25.320;2022-11-15T14:22:32;97329.75;;;10.38;100.00
20115;BME280;10218;42.874;25.320;2022-11-15T14:25:20;97326.81;;;9.82;100.00
20115;BME280;10218;42.874;25.320;2022-11-15T14:30:46;97325.06;;;10.23;100.00
20115;BME280;10218;42.874;25.320;2022-11-15T14:33:32;97334.06;;;9.48;100.00
20115;BME280;10218;42.874;25.320;2022-11-15T14:38:32;97328.50;;;9.33;100.00
20115;BME280;10218;42.874;25.320;2022-11-15T14:41:00;97330.75;;;9.62;100.00
20115;BME280;10218;42.874;25.320;2022-11-15T14:43:27;97327.34;;;9.94;100.00
20115;BME280;10218;42.874;25.320;2022-11-15T14:45:54;97326.47;;;9.69;100.00
20115;BME280;10218;42.874;25.320;2022-11-15T14:48:21;97333.13;;;9.73;100.00
20115;BME280;10218;42.874;25.320;2022-11-15T14:50:48;97321.50;;;9.99;100.00
20115;BME280;10218;42.874;25.320;2022-11-15T14:53:16;97314.19;;;10.09;100.00
20115;BME280;10218;42.874;25.320;2022-11-15T14:55:44;97317.09;;;9.65;100.00
20115;BME280;10218;42.874;25.320;2022-11-15T14:58:11;97325.72;;;9.09;100.00
20115;BME280;10218;42.874;25.320;2022-11-15T15:00:40;97323.75;;;9.53;100.00
20115;BME280;10218;42.874;25.320;2022-11-15T15:03:07;97316.28;;;9.65;100.00
20115;BME280;10218;42.874;25.320;2022-11-15T15:05:42;97314.62;;;9.72;100.00
20115;BME280;10218;42.874;25.320;2022-11-15T15:08:10;97322.75;;;9.54;100.00
20115;BME280;10218;42.874;25.320;2022-11-15T15:10:42;97323.44;;;9.64;100.00
20115;BME280;10218;42.874;25.320;2022-11-15T15:13:18;97320.94;;;9.63;100.00
20115;BME280;10218;42.874;25.320;2022-11-15T15:15:46;97317.56;;;9.53;100.00
20115;BME280;10218;42.874;25.320;2022-11-15T15:18:14;97321.72;;;9.47;100.00
20115;BME280;10218;42.874;25.320;2022-11-15T15:20:43;97321.13;;;9.19;100.00
20115;BME280;10218;42.874;25.320;2022-11-15T15:23:17;97317.75;;;9.17;100.00
20115;BME280;10218;42.874;25.320;2022-11-15T15:25:46;97319.34;;;9.36;100.00
20115;BME280;10218;42.874;25.320;2022-11-15T15:28:14;97326.09;;;9.14;100.00
20115;BME280;10218;42.874;25.320;2022-11-15T15:30:41;97314.69;;;9.04;100.00
20115;BME280;10218;42.874;25.320;2022-11-15T15:33:09;97315.47;;;9.30;100.00
20115;BME280;10218;42.874;25.320;2022-11-15T15:35:36;97316.72;;;9.44;100.00
20115;BME280;10218;42.874;25.320;2022-11-15T15:38:03;97316.19;;;9.40;100.00
20115;BME280;10218;42.874;25.320;2022-11-15T15:40:32;97314.56;;;9.56;100.00
20115;BME280;10218;42.874;25.320;2022-11-15T15:43:00;97319.59;;;9.17;100.00
20115;BME280;10218;42.874;25.320;2022-11-15T15:45:27;97313.25;;;9.18;100.00
20115;BME280;10218;42.874;25.320;2022-11-15T15:47:55;97314.28;;;9.25;100.00
20115;BME280;10218;42.874;25.320;2022-11-15T15:52:52;97316.31;;;9.31;100.00
20115;BME280;10218;42.874;25.320;2022-11-15T15:55:20;97313.97;;;9.28;100.00
20115;BME280;10218;42.874;25.320;2022-11-15T15:57:47;97317.63;;;9.27;100.00
20115;BME280;10218;42.874;25.320;2022-11-15T16:00:15;97305.41;;;9.58;100.00
20115;BME280;10218;42.874;25.320;2022-11-15T16:02:43;97309.63;;;9.27;100.00
20115;BME280;10218;42.874;25.320;2022-11-15T16:05:12;97303.97;;;9.30;100.00
20115;BME280;10218;42.874;25.320;2022-11-15T16:07:39;97309.66;;;9.35;100.00
20115;BME280;10218;42.874;25.320;2022-11-15T16:10:26;97306.62;;;9.22;100.00
20115;BME280;10218;42.874;25.320;2022-11-15T16:12:54;97317.31;;;8.96;100.00
20115;BME280;10218;42.874;25.320;2022-11-15T16:15:24;97314.28;;;8.65;100.00
20115;BME280;10218;42.874;25.320;2022-11-15T16:17:53;97312.34;;;9.01;100.00
20115;BME280;10218;42.874;25.320;2022-11-15T16:23:05;97300.22;;;9.07;100.00
20115;BME280;10218;42.874;25.320;2022-11-15T16:25:38;97299.53;;;9.05;100.00
20115;BME280;10218;42.874;25.320;2022-11-15T16:28:29;97279.78;;;8.89;100.00
20115;BME280;10218;42.874;25.320;2022-11-15T16:31:05;97301.06;;;9.15;100.00
20115;BME280;10218;42.874;25.320;2022-11-15T16:33:32;97305.03;;;9.45;100.00
20115;BME280;10218;42.874;25.320;2022-11-15T16:36:00;97303.84;;;8.97;100.00
20115;BME280;10218;42.874;25.320;2022-11-15T16:38:27;97316.19;;;8.98;100.00
20115;BME280;10218;42.874;25.320;2022-11-15T16:40:54;97289.81;;;8.95;100.00